Time;durP1;ratioP1;P1;durP2;ratioP2;P2;SDS_P1;SDS_P2;PMS_P1;PMS_P2;Temp;Humidity;BMP_temperature;BMP_pressure;BME280_temperature;BME280_humidity;BME280_pressure;Samples;Min_cycle;Max_cycle;Signal;HPM_P1;HPM_P2
2022/11/16 00:02:15;;;;;;;2.88;2.58;;;;;;;;;;5098739;28;20715;-87
2022/11/16 00:04:43;;;;;;;2.25;2.13;;;;;;;;;;5096468;28;20200;-87
2022/11/16 00:07:11;;;;;;;2.63;2.35;;;;;;;;;;5095693;28;20262;-87
2022/11/16 00:09:40;;;;;;;3.58;3.28;;;;;;;;;;5094868;28;20652;-87
2022/11/16 00:12:11;;;;;;;2.97;2.67;;;;;;;;;;5095174;28;20204;-88
2022/11/16 00:14:39;;;;;;;3.20;2.65;;;;;;;;;;5095222;28;20204;-87
2022/11/16 00:17:07;;;;;;;2.55;2.35;;;;;;;;;;5095398;28;20287;-87
2022/11/16 00:19:34;;;;;;;2.38;2.10;;;;;;;;;;5094654;28;20307;-87
2022/11/16 00:22:02;;;;;;;2.80;2.60;;;;;;;;;;5094810;28;20294;-87
2022/11/16 00:24:29;;;;;;;6.05;3.30;;;;;;;;;;5094886;28;20635;-87
2022/11/16 00:26:58;;;;;;;2.20;1.95;;;;;;;;;;5094217;28;20227;-87
2022/11/16 00:29:26;;;;;;;2.53;2.33;;;;;;;;;;5094329;28;20307;-87
2022/11/16 00:31:54;;;;;;;1.70;1.60;;;;;;;;;;5094771;28;20192;-87
2022/11/16 00:34:23;;;;;;;3.00;2.40;;;;;;;;;;5094676;28;20652;-87
2022/11/16 00:36:50;;;;;;;2.22;2.03;;;;;;;;;;5094237;28;20250;-87
2022/11/16 00:39:19;;;;;;;2.70;2.50;;;;;;;;;;5094164;28;20224;-87
2022/11/16 00:41:48;;;;;;;2.30;2.10;;;;;;;;;;5094130;28;20239;-87
2022/11/16 00:44:17;;;;;;;2.53;2.20;;;;;;;;;;5094580;28;20283;-87
2022/11/16 00:46:45;;;;;;;2.28;2.08;;;;;;;;;;5094429;28;20211;-87
2022/11/16 00:49:13;;;;;;;3.53;2.85;;;;;;;;;;5093913;28;20228;-87
2022/11/16 00:51:40;;;;;;;2.95;2.75;;;;;;;;;;5093834;28;20288;-87
2022/11/16 00:54:09;;;;;;;2.70;2.50;;;;;;;;;;5094286;28;20292;-86
2022/11/16 00:56:36;;;;;;;2.70;2.50;;;;;;;;;;5094353;28;20610;-87
2022/11/16 00:59:04;;;;;;;3.65;2.45;;;;;;;;;;5094109;28;20307;-88
2022/11/16 01:01:33;;;;;;;2.92;2.50;;;;;;;;;;5094092;28;20597;-87
2022/11/16 01:04:01;;;;;;;2.55;2.35;;;;;;;;;;5093972;28;20201;-87
2022/11/16 01:06:28;;;;;;;2.60;2.30;;;;;;;;;;5093221;28;20226;-87
2022/11/16 01:08:56;;;;;;;2.63;2.42;;;;;;;;;;5093112;28;20224;-87
2022/11/16 01:14:10;;;;;;;2.50;2.30;;;;;;;;;;5093807;28;20545;-87
2022/11/16 01:16:39;;;;;;;2.70;2.20;;;;;;;;;;5093948;28;20207;-87
2022/11/16 01:19:07;;;;;;;2.00;1.90;;;;;;;;;;5097198;28;20246;-88
2022/11/16 01:21:35;;;;;;;2.70;2.50;;;;;;;;;;5094547;28;20345;-87
2022/11/16 01:24:03;;;;;;;3.25;2.83;;;;;;;;;;5093503;28;20223;-88
2022/11/16 01:26:30;;;;;;;4.18;3.65;;;;;;;;;;5093735;28;20210;-87
2022/11/16 01:28:59;;;;;;;3.10;2.80;;;;;;;;;;5092530;28;20315;-87
2022/11/16 01:31:26;;;;;;;3.40;3.10;;;;;;;;;;5093356;28;20212;-86
2022/11/16 01:33:56;;;;;;;3.85;3.33;;;;;;;;;;5093306;28;20563;-87
2022/11/16 01:36:23;;;;;;;2.95;2.75;;;;;;;;;;5093078;28;20704;-88
2022/11/16 01:38:51;;;;;;;4.18;3.72;;;;;;;;;;5092750;28;20253;-89
2022/11/16 01:41:22;;;;;;;4.15;3.75;;;;;;;;;;5087822;22;20312;-86
2022/11/16 01:43:56;;;;;;;3.15;2.53;;;;;;;;;;5054343;28;20263;-85
2022/11/16 01:46:26;;;;;;;5.28;3.53;;;;;;;;;;5054789;28;20765;-85
2022/11/16 01:49:00;;;;;;;2.80;2.50;;;;;;;;;;5054172;28;20243;-85
2022/11/16 01:51:28;;;;;;;4.20;2.90;;;;;;;;;;5055915;28;20177;-85
2022/11/16 01:53:56;;;;;;;3.58;3.28;;;;;;;;;;5055442;28;20296;-85
2022/11/16 01:56:25;;;;;;;4.07;3.10;;;;;;;;;;5054790;28;20289;-84
2022/11/16 01:58:53;;;;;;;4.22;3.30;;;;;;;;;;5054889;28;20293;-85
2022/11/16 02:01:20;;;;;;;4.03;3.25;;;;;;;;;;5055530;28;20202;-85
2022/11/16 02:03:48;;;;;;;3.30;3.00;;;;;;;;;;5055974;28;20244;-85
2022/11/16 02:06:33;;;;;;;2.83;2.63;;;;;;;;;;5055549;28;20218;-85
2022/11/16 02:12:39;;;;;;;4.40;3.20;;;;;;;;;;5044605;28;20569;-84
2022/11/16 02:15:19;;;;;;;3.72;3.03;;;;;;;;;;5055205;28;20304;-84
2022/11/16 02:17:54;;;;;;;3.65;3.17;;;;;;;;;;5054213;28;20614;-84
2022/11/16 02:21:10;;;;;;;4.07;3.70;;;;;;;;;;5054598;28;20212;-84
2022/11/16 02:24:05;;;;;;;3.42;3.13;;;;;;;;;;5030973;28;20205;-84
2022/11/16 02:26:47;;;;;;;3.25;2.95;;;;;;;;;;5054065;28;20211;-84
2022/11/16 02:29:23;;;;;;;4.05;3.75;;;;;;;;;;5055319;28;20300;-85
2022/11/16 02:31:58;;;;;;;2.85;2.65;;;;;;;;;;5054841;28;20223;-84
2022/11/16 02:34:28;;;;;;;5.25;3.33;;;;;;;;;;5054020;28;20274;-84
2022/11/16 02:36:57;;;;;;;3.00;2.70;;;;;;;;;;5053783;28;20737;-84
2022/11/16 02:39:27;;;;;;;5.75;3.42;;;;;;;;;;5052903;28;20198;-83
2022/11/16 02:41:56;;;;;;;3.30;3.00;;;;;;;;;;5053320;28;20259;-84
2022/11/16 02:44:27;;;;;;;5.18;3.13;;;;;;;;;;5053806;28;20296;-84
2022/11/16 02:46:59;;;;;;;13.85;3.50;;;;;;;;;;5053492;28;20588;-84
2022/11/16 02:49:27;;;;;;;3.15;2.85;;;;;;;;;;5053701;28;20241;-85
2022/11/16 02:51:55;;;;;;;3.42;3.13;;;;;;;;;;5056508;28;20202;-85
2022/11/16 02:54:24;;;;;;;3.35;2.92;;;;;;;;;;5056777;28;20217;-87
2022/11/16 02:56:57;;;;;;;3.83;3.50;;;;;;;;;;5055452;28;20205;-86
2022/11/16 02:59:31;;;;;;;3.58;3.20;;;;;;;;;;5055845;28;20182;-86
2022/11/16 03:02:04;;;;;;;3.42;3.13;;;;;;;;;;5056606;28;20254;-85
2022/11/16 03:04:35;;;;;;;3.85;3.53;;;;;;;;;;5055809;28;20256;-85
2022/11/16 03:07:05;;;;;;;3.67;3.38;;;;;;;;;;5056704;28;20210;-85
2022/11/16 03:09:36;;;;;;;3.97;3.65;;;;;;;;;;5054688;28;20225;-86
2022/11/16 03:12:07;;;;;;;4.35;3.20;;;;;;;;;;5055381;28;20343;-85
2022/11/16 03:14:39;;;;;;;3.45;2.88;;;;;;;;;;5057165;28;20222;-86
2022/11/16 03:17:11;;;;;;;2.75;2.55;;;;;;;;;;5055697;28;20281;-86
2022/11/16 03:19:42;;;;;;;4.25;3.33;;;;;;;;;;5055586;28;20214;-87
2022/11/16 03:22:14;;;;;;;4.28;3.35;;;;;;;;;;5056080;28;20340;-86
2022/11/16 03:24:42;;;;;;;3.58;3.28;;;;;;;;;;5056081;28;20304;-86
2022/11/16 03:27:18;;;;;;;2.88;2.63;;;;;;;;;;5055548;28;20633;-86
2022/11/16 03:29:56;;;;;;;3.70;3.38;;;;;;;;;;5057560;28;20244;-86
2022/11/16 03:32:30;;;;;;;3.53;3.22;;;;;;;;;;5059730;28;20259;-86
2022/11/16 03:35:02;;;;;;;3.50;3.20;;;;;;;;;;5059649;28;20249;-86
2022/11/16 03:37:31;;;;;;;3.05;2.78;;;;;;;;;;5058855;28;20232;-86
2022/11/16 03:40:00;;;;;;;2.92;2.42;;;;;;;;;;5059194;28;20743;-86
2022/11/16 03:42:28;;;;;;;3.28;2.95;;;;;;;;;;5058779;28;20304;-85
2022/11/16 03:44:57;;;;;;;2.90;2.70;;;;;;;;;;5059191;28;20264;-86
2022/11/16 03:47:25;;;;;;;3.75;2.80;;;;;;;;;;5059615;28;20228;-86
2022/11/16 03:49:52;;;;;;;3.45;3.20;;;;;;;;;;5059605;28;20703;-86
2022/11/16 03:52:20;;;;;;;3.08;2.80;;;;;;;;;;5060074;28;20201;-85
2022/11/16 03:54:47;;;;;;;3.80;3.10;;;;;;;;;;5058970;28;20221;-86
2022/11/16 03:57:17;;;;;;;3.45;3.15;;;;;;;;;;5047686;28;20243;-86
2022/11/16 03:59:45;;;;;;;3.20;2.88;;;;;;;;;;5036442;28;20213;-86
2022/11/16 04:02:14;;;;;;;3.38;2.90;;;;;;;;;;5038785;28;20916;-86
2022/11/16 04:24:14;;;;;;;3.70;3.15;;;;;;;;;;5056363;28;20260;-86
2022/11/16 04:29:25;;;;;;;3.17;2.88;;;;;;;;;;5023131;28;20287;-85
2022/11/16 04:40:11;;;;;;;3.60;3.30;;;;;;;;;;5057599;28;20587;-86
2022/11/16 04:42:39;;;;;;;3.10;2.80;;;;;;;;;;5057881;28;20294;-86
2022/11/16 04:47:53;;;;;;;4.25;3.50;;;;;;;;;;5059283;28;20181;-86
2022/11/16 04:50:22;;;;;;;3.78;3.47;;;;;;;;;;5058739;28;20603;-86
2022/11/16 04:52:50;;;;;;;3.45;3.15;;;;;;;;;;5057400;28;20745;-85
2022/11/16 04:55:17;;;;;;;3.95;3.55;;;;;;;;;;5055656;28;20257;-85
2022/11/16 04:57:45;;;;;;;4.68;4.28;;;;;;;;;;5055969;28;20706;-86
2022/11/16 05:00:14;;;;;;;4.03;3.60;;;;;;;;;;5057379;28;20237;-86
2022/11/16 05:02:42;;;;;;;3.75;3.45;;;;;;;;;;5056305;28;20232;-86
2022/11/16 05:05:10;;;;;;;4.00;3.58;;;;;;;;;;5055821;28;20287;-85
2022/11/16 05:07:39;;;;;;;4.85;4.45;;;;;;;;;;5056556;28;20267;-86
2022/11/16 05:10:08;;;;;;;3.83;3.53;;;;;;;;;;5055213;28;20241;-85
2022/11/16 05:12:36;;;;;;;4.05;3.65;;;;;;;;;;5057617;28;20236;-86
2022/11/16 05:15:05;;;;;;;5.05;4.55;;;;;;;;;;5057107;28;20253;-85
2022/11/16 05:17:32;;;;;;;4.65;4.25;;;;;;;;;;5054862;28;20629;-85
2022/11/16 05:22:55;;;;;;;4.88;4.03;;;;;;;;;;5055203;28;20193;-86
2022/11/16 05:25:22;;;;;;;4.18;3.78;;;;;;;;;;5055032;28;20289;-85
2022/11/16 05:27:50;;;;;;;6.15;4.45;;;;;;;;;;5055420;28;20295;-86
2022/11/16 05:30:17;;;;;;;3.72;3.35;;;;;;;;;;5055209;28;20275;-86
2022/11/16 05:32:45;;;;;;;4.32;3.92;;;;;;;;;;5055213;28;20202;-86
2022/11/16 05:35:12;;;;;;;4.15;3.75;;;;;;;;;;5054774;28;20294;-86
2022/11/16 05:37:41;;;;;;;3.92;3.60;;;;;;;;;;5055112;28;20237;-86
2022/11/16 05:40:11;;;;;;;4.78;4.30;;;;;;;;;;5054763;28;20289;-85
2022/11/16 05:42:39;;;;;;;4.97;4.50;;;;;;;;;;5054086;28;20249;-87
2022/11/16 05:45:07;;;;;;;4.20;3.75;;;;;;;;;;5053782;28;20321;-87
2022/11/16 05:47:35;;;;;;;4.38;4.07;;;;;;;;;;5058675;28;20335;-87
2022/11/16 05:50:02;;;;;;;4.10;3.80;;;;;;;;;;5053150;28;20709;-87
2022/11/16 05:52:30;;;;;;;5.43;4.88;;;;;;;;;;5053375;28;20229;-87
2022/11/16 05:54:57;;;;;;;4.97;4.20;;;;;;;;;;5053365;28;20350;-87
2022/11/16 05:57:26;;;;;;;4.30;3.90;;;;;;;;;;5053522;28;20607;-88
2022/11/16 05:59:54;;;;;;;5.32;3.88;;;;;;;;;;5053299;28;20280;-87
2022/11/16 06:02:21;;;;;;;5.03;4.53;;;;;;;;;;5053358;28;20224;-87
2022/11/16 06:05:18;;;;;;;3.90;3.30;;;;;;;;;;5053165;28;20271;-88
2022/11/16 06:07:45;;;;;;;4.63;4.22;;;;;;;;;;5053233;28;20269;-88
2022/11/16 06:10:13;;;;;;;5.53;4.93;;;;;;;;;;5053182;28;20699;-87
2022/11/16 06:12:42;;;;;;;5.70;4.82;;;;;;;;;;5053164;28;20702;-87
2022/11/16 06:15:10;;;;;;;5.45;4.95;;;;;;;;;;5053409;28;20250;-87
2022/11/16 06:17:38;;;;;;;4.72;4.38;;;;;;;;;;5053311;28;20237;-87
2022/11/16 06:20:07;;;;;;;4.13;3.72;;;;;;;;;;5052984;28;20237;-87
2022/11/16 06:22:34;;;;;;;4.60;4.20;;;;;;;;;;5052756;28;20347;-87
2022/11/16 06:25:03;;;;;;;5.20;4.70;;;;;;;;;;5052580;28;20335;-87
2022/11/16 06:27:56;;;;;;;5.78;5.18;;;;;;;;;;5053058;28;20662;-87
2022/11/16 06:30:23;;;;;;;3.80;3.50;;;;;;;;;;5053230;28;20317;-88
2022/11/16 06:33:06;;;;;;;3.92;3.63;;;;;;;;;;5053192;28;20661;-87
2022/11/16 06:35:34;;;;;;;3.80;3.50;;;;;;;;;;5052986;28;20222;-87
2022/11/16 06:38:01;;;;;;;6.10;4.88;;;;;;;;;;5052736;28;20202;-87
2022/11/16 06:40:29;;;;;;;3.60;3.30;;;;;;;;;;5052702;28;20237;-89
2022/11/16 06:42:58;;;;;;;5.03;4.63;;;;;;;;;;5052557;28;20297;-88
2022/11/16 06:45:25;;;;;;;3.47;3.17;;;;;;;;;;5052712;28;20693;-88
2022/11/16 06:47:53;;;;;;;3.30;3.00;;;;;;;;;;5052891;28;20681;-87
2022/11/16 06:50:21;;;;;;;4.60;4.20;;;;;;;;;;5052876;28;20228;-86
2022/11/16 06:52:50;;;;;;;3.28;2.90;;;;;;;;;;5053006;28;20694;-87
2022/11/16 06:55:22;;;;;;;3.67;3.38;;;;;;;;;;5047374;28;20265;-87
2022/11/16 06:57:49;;;;;;;3.75;3.47;;;;;;;;;;5032916;28;20197;-88
2022/11/16 07:00:19;;;;;;;4.60;4.15;;;;;;;;;;5032858;28;20226;-88
2022/11/16 07:02:47;;;;;;;3.95;3.65;;;;;;;;;;5032727;28;20224;-88
2022/11/16 07:05:15;;;;;;;3.45;3.15;;;;;;;;;;5035687;28;20264;-89
2022/11/16 07:07:43;;;;;;;3.80;3.50;;;;;;;;;;5036380;28;20206;-89
2022/11/16 07:10:11;;;;;;;3.97;3.58;;;;;;;;;;5036470;28;20226;-87
2022/11/16 07:12:39;;;;;;;4.30;4.00;;;;;;;;;;5036336;28;20272;-88
2022/11/16 07:15:08;;;;;;;3.28;3.05;;;;;;;;;;5036234;28;20223;-88
2022/11/16 07:17:42;;;;;;;2.92;2.70;;;;;;;;;;5036638;28;20224;-88
2022/11/16 07:20:11;;;;;;;3.67;3.35;;;;;;;;;;5036698;28;20270;-88
2022/11/16 07:22:39;;;;;;;3.88;3.53;;;;;;;;;;5036113;28;20292;-87
2022/11/16 07:25:08;;;;;;;4.20;3.80;;;;;;;;;;5035990;28;20665;-87
2022/11/16 07:27:36;;;;;;;4.45;4.05;;;;;;;;;;5036215;28;20288;-88
2022/11/16 07:30:04;;;;;;;3.67;3.38;;;;;;;;;;5036266;28;20298;-88
2022/11/16 07:33:14;;;;;;;4.95;4.55;;;;;;;;;;5035805;28;20222;-88
2022/11/16 07:35:44;;;;;;;5.13;3.40;;;;;;;;;;5036082;28;20225;-88
2022/11/16 07:38:11;;;;;;;3.03;2.75;;;;;;;;;;5036052;28;20225;-88
2022/11/16 07:40:39;;;;;;;4.05;3.47;;;;;;;;;;5035684;28;20222;-89
2022/11/16 07:43:06;;;;;;;4.60;3.95;;;;;;;;;;5035912;28;20635;-87
2022/11/16 07:45:34;;;;;;;4.55;4.15;;;;;;;;;;5035522;28;20238;-88
2022/11/16 07:48:02;;;;;;;4.05;3.63;;;;;;;;;;5035055;28;20203;-89
2022/11/16 07:50:31;;;;;;;4.93;4.43;;;;;;;;;;5035477;28;20671;-87
2022/11/16 07:52:58;;;;;;;3.42;3.13;;;;;;;;;;5035780;28;20324;-89
2022/11/16 07:55:30;;;;;;;3.72;3.40;;;;;;;;;;5035286;28;20218;-89
2022/11/16 07:57:59;;;;;;;3.95;3.65;;;;;;;;;;5035572;28;20684;-88
2022/11/16 08:00:26;;;;;;;4.43;3.80;;;;;;;;;;5035239;28;20290;-88
2022/11/16 08:02:56;;;;;;;3.92;3.38;;;;;;;;;;5035276;28;20257;-90
2022/11/16 08:05:23;;;;;;;4.07;3.58;;;;;;;;;;5034653;28;20305;-89
2022/11/16 08:07:52;;;;;;;3.95;3.65;;;;;;;;;;5035238;28;20293;-88
2022/11/16 08:10:21;;;;;;;3.67;3.35;;;;;;;;;;5035022;28;20214;-89
2022/11/16 08:12:48;;;;;;;5.75;3.55;;;;;;;;;;5035697;28;20230;-88
2022/11/16 08:15:16;;;;;;;3.58;3.30;;;;;;;;;;5034974;28;20233;-88
2022/11/16 08:17:43;;;;;;;4.22;3.83;;;;;;;;;;5035394;28;20234;-89
2022/11/16 08:20:12;;;;;;;4.95;3.85;;;;;;;;;;5035411;28;20628;-89
2022/11/16 08:22:40;;;;;;;4.63;4.22;;;;;;;;;;5035327;28;20205;-88
2022/11/16 08:25:09;;;;;;;4.10;3.67;;;;;;;;;;5035036;28;20222;-89
2022/11/16 08:27:37;;;;;;;3.92;3.63;;;;;;;;;;5035223;28;20242;-87
2022/11/16 08:30:08;;;;;;;3.58;3.28;;;;;;;;;;5035068;28;20198;-88
2022/11/16 08:32:36;;;;;;;4.38;3.97;;;;;;;;;;5034907;28;20214;-87
2022/11/16 08:35:04;;;;;;;4.00;3.45;;;;;;;;;;5034245;28;20528;-87
2022/11/16 08:37:32;;;;;;;3.75;3.45;;;;;;;;;;5034168;28;20195;-87
2022/11/16 08:40:02;;;;;;;4.55;4.13;;;;;;;;;;5035363;28;20206;-88
2022/11/16 08:42:30;;;;;;;4.38;3.97;;;;;;;;;;5035689;28;20631;-88
2022/11/16 08:44:58;;;;;;;4.68;4.22;;;;;;;;;;5036174;28;20245;-88
2022/11/16 08:47:26;;;;;;;5.65;4.95;;;;;;;;;;5035797;28;20206;-88
2022/11/16 08:49:53;;;;;;;4.93;4.43;;;;;;;;;;5035260;28;20268;-88
2022/11/16 08:52:21;;;;;;;4.70;4.15;;;;;;;;;;5035522;28;20226;-89
2022/11/16 08:54:49;;;;;;;5.10;4.50;;;;;;;;;;5035400;28;20241;-89
2022/11/16 08:57:16;;;;;;;4.55;4.05;;;;;;;;;;5035237;28;20290;-90
2022/11/16 08:59:45;;;;;;;4.70;4.30;;;;;;;;;;5034535;28;20289;-90
2022/11/16 09:02:13;;;;;;;4.50;4.10;;;;;;;;;;5034249;28;20211;-89
2022/11/16 09:04:41;;;;;;;5.13;4.63;;;;;;;;;;5034360;28;20600;-89
2022/11/16 09:07:08;;;;;;;6.25;4.57;;;;;;;;;;5034372;28;20202;-89
2022/11/16 09:09:37;;;;;;;3.90;3.60;;;;;;;;;;5033919;28;20198;-89
2022/11/16 09:12:05;;;;;;;4.75;4.35;;;;;;;;;;5034583;28;20918;-90
2022/11/16 09:14:32;;;;;;;5.18;4.68;;;;;;;;;;5034690;28;20636;-91
2022/11/16 09:17:01;;;;;;;5.60;5.07;;;;;;;;;;5034055;28;20206;-90
2022/11/16 09:19:29;;;;;;;4.85;4.40;;;;;;;;;;5033894;28;20238;-90
2022/11/16 09:21:56;;;;;;;5.03;4.55;;;;;;;;;;5033938;28;20655;-90
2022/11/16 09:24:24;;;;;;;5.03;4.63;;;;;;;;;;5034082;28;20260;-90
2022/11/16 09:26:51;;;;;;;5.22;4.28;;;;;;;;;;5033325;28;20206;-90
2022/11/16 09:29:19;;;;;;;3.95;3.55;;;;;;;;;;5034433;28;20256;-90
2022/11/16 09:31:46;;;;;;;4.90;4.38;;;;;;;;;;5033149;28;20258;-89
2022/11/16 09:34:15;;;;;;;5.05;4.32;;;;;;;;;;5033559;28;20293;-90
2022/11/16 09:36:43;;;;;;;4.88;4.43;;;;;;;;;;5033578;28;20213;-90
2022/11/16 09:39:12;;;;;;;4.65;4.25;;;;;;;;;;5033760;28;20232;-89
2022/11/16 09:41:58;;;;;;;4.25;3.92;;;;;;;;;;5033585;28;20293;-91
2022/11/16 09:44:44;;;;;;;4.50;4.20;;;;;;;;;;5032633;28;20186;-89
2022/11/16 09:47:17;;;;;;;4.90;4.47;;;;;;;;;;5032654;28;20289;-89
2022/11/16 09:49:49;;;;;;;4.97;4.50;;;;;;;;;;5033113;28;20278;-90
2022/11/16 09:52:26;;;;;;;4.95;4.47;;;;;;;;;;5032980;28;20575;-90
2022/11/16 09:54:54;;;;;;;4.90;4.40;;;;;;;;;;5032954;28;20357;-89
2022/11/16 09:57:27;;;;;;;4.75;4.35;;;;;;;;;;5032823;28;20194;-89
2022/11/16 09:59:58;;;;;;;4.07;3.40;;;;;;;;;;5032811;28;20205;-89
2022/11/16 10:02:28;;;;;;;4.45;4.05;;;;;;;;;;5032904;28;20241;-89
2022/11/16 10:05:01;;;;;;;4.47;4.07;;;;;;;;;;5033066;28;20264;-88
2022/11/16 10:07:33;;;;;;;4.50;4.10;;;;;;;;;;5042579;28;20221;-89
2022/11/16 10:10:00;;;;;;;3.90;3.45;;;;;;;;;;5052096;28;20281;-88
2022/11/16 10:12:33;;;;;;;4.38;3.97;;;;;;;;;;5067893;28;20773;-89
2022/11/16 10:15:31;;;;;;;4.30;3.90;;;;;;;;;;5072523;28;20351;-89
2022/11/16 10:18:23;;;;;;;3.90;3.60;;;;;;;;;;5073071;28;20736;-90
2022/11/16 10:21:08;;;;;;;3.83;3.53;;;;;;;;;;5072548;28;20632;-88
2022/11/16 10:23:50;;;;;;;4.13;3.83;;;;;;;;;;5072982;28;20200;-89
2022/11/16 10:26:27;;;;;;;3.35;3.15;;;;;;;;;;5072749;28;20312;-89
2022/11/16 10:29:16;;;;;;;3.25;3.05;;;;;;;;;;5072802;28;20223;-88
2022/11/16 10:32:05;;;;;;;3.60;3.30;;;;;;;;;;5072740;28;20390;-89
2022/11/16 10:34:42;;;;;;;3.60;3.30;;;;;;;;;;5072665;28;20792;-90
2022/11/16 10:37:13;;;;;;;3.58;3.28;;;;;;;;;;5072572;28;20516;-89
2022/11/16 10:39:41;;;;;;;3.97;3.63;;;;;;;;;;5075960;28;20191;-89
2022/11/16 10:42:13;;;;;;;2.90;2.60;;;;;;;;;;5063799;28;20678;-89
2022/11/16 10:44:44;;;;;;;3.50;3.20;;;;;;;;;;5056655;28;20686;-89
2022/11/16 10:47:18;;;;;;;3.38;3.13;;;;;;;;;;5056433;28;20626;-89
2022/11/16 10:49:55;;;;;;;3.08;2.83;;;;;;;;;;5056145;28;20236;-89
2022/11/16 10:52:25;;;;;;;3.20;3.00;;;;;;;;;;5056476;28;20245;-89
2022/11/16 10:54:53;;;;;;;2.83;2.50;;;;;;;;;;5055823;28;20578;-90
2022/11/16 10:57:23;;;;;;;2.63;2.42;;;;;;;;;;5055912;28;20205;-89
2022/11/16 10:59:54;;;;;;;4.13;3.83;;;;;;;;;;5055911;28;20197;-90
2022/11/16 11:02:33;;;;;;;2.90;2.70;;;;;;;;;;5055983;28;20198;-89
2022/11/16 11:05:15;;;;;;;2.20;2.10;;;;;;;;;;5055824;28;20217;-89
2022/11/16 11:07:49;;;;;;;2.97;2.70;;;;;;;;;;5056013;28;20186;-90
2022/11/16 11:10:28;;;;;;;3.20;2.63;;;;;;;;;;5056020;28;20197;-89
2022/11/16 11:13:25;;;;;;;2.78;2.58;;;;;;;;;;5054035;28;20316;-90
2022/11/16 11:16:16;;;;;;;2.92;2.72;;;;;;;;;;5056077;28;20237;-87
2022/11/16 11:18:43;;;;;;;5.75;2.97;;;;;;;;;;5055519;28;20281;-86
2022/11/16 11:21:17;;;;;;;5.53;3.67;;;;;;;;;;5055051;28;20335;-87
2022/11/16 11:23:49;;;;;;;6.13;4.32;;;;;;;;;;5055634;28;20197;-87
2022/11/16 11:26:31;;;;;;;3.25;3.05;;;;;;;;;;5055694;28;20222;-87
2022/11/16 11:29:01;;;;;;;4.25;3.90;;;;;;;;;;5054432;28;20208;-87
2022/11/16 11:31:35;;;;;;;6.05;5.25;;;;;;;;;;5054893;28;20230;-87
2022/11/16 11:34:14;;;;;;;3.92;3.63;;;;;;;;;;5056212;28;20216;-88
2022/11/16 11:36:46;;;;;;;2.22;2.13;;;;;;;;;;5056243;28;20209;-87
2022/11/16 11:39:35;;;;;;;2.20;2.00;;;;;;;;;;5056020;28;20282;-88
2022/11/16 11:42:07;;;;;;;2.42;1.73;;;;;;;;;;5067957;28;20274;-88
2022/11/16 11:44:43;;;;;;;2.80;2.22;;;;;;;;;;5075639;28;20225;-88
2022/11/16 11:47:26;;;;;;;2.10;2.00;;;;;;;;;;5075912;28;20542;-88
2022/11/16 11:49:59;;;;;;;1.70;1.45;;;;;;;;;;5074945;28;20189;-87
2022/11/16 11:52:35;;;;;;;1.50;1.40;;;;;;;;;;5075766;28;20189;-87
2022/11/16 11:55:07;;;;;;;2.05;1.85;;;;;;;;;;5072493;28;20278;-87
2022/11/16 11:57:39;;;;;;;1.50;1.40;;;;;;;;;;5055240;28;20288;-87
2022/11/16 12:00:12;;;;;;;1.63;1.52;;;;;;;;;;5055085;28;20393;-88
2022/11/16 12:02:57;;;;;;;2.60;2.05;;;;;;;;;;5055565;28;20209;-87
2022/11/16 12:06:06;;;;;;;1.95;1.85;;;;;;;;;;5055190;28;20224;-88
2022/11/16 12:08:57;;;;;;;3.45;1.80;;;;;;;;;;5055392;28;20533;-88
2022/11/16 12:11:33;;;;;;;1.23;1.13;;;;;;;;;;5048352;28;20232;-88
2022/11/16 12:14:10;;;;;;;1.45;1.35;;;;;;;;;;5034816;28;20230;-89
2022/11/16 12:16:44;;;;;;;1.50;1.40;;;;;;;;;;5034718;28;20201;-88
2022/11/16 12:19:41;;;;;;;1.85;1.38;;;;;;;;;;5049457;28;20233;-88
2022/11/16 12:22:21;;;;;;;0.85;0.85;;;;;;;;;;5054183;28;20706;-88
2022/11/16 12:25:00;;;;;;;2.08;1.60;;;;;;;;;;5054041;28;20709;-89
2022/11/16 12:27:35;;;;;;;2.05;1.38;;;;;;;;;;5054334;28;20286;-88
2022/11/16 12:30:10;;;;;;;5.85;2.00;;;;;;;;;;5054528;28;20343;-88
2022/11/16 12:33:04;;;;;;;1.15;1.05;;;;;;;;;;5054313;28;20205;-88
2022/11/16 12:35:41;;;;;;;1.55;1.20;;;;;;;;;;5054187;28;20261;-89
2022/11/16 12:38:44;;;;;;;2.95;1.30;;;;;;;;;;5054070;28;20232;-89
2022/11/16 12:41:48;;;;;;;3.85;2.28;;;;;;;;;;5040360;28;20216;-88
2022/11/16 12:44:23;;;;;;;2.63;1.80;;;;;;;;;;5044164;28;20224;-89
2022/11/16 12:46:59;;;;;;;2.17;1.42;;;;;;;;;;5053985;28;20604;-88
2022/11/16 12:49:42;;;;;;;1.60;1.48;;;;;;;;;;5054474;28;20193;-89
2022/11/16 12:52:27;;;;;;;1.38;1.00;;;;;;;;;;5054591;28;20189;-89
2022/11/16 12:55:11;;;;;;;1.10;1.00;;;;;;;;;;5054007;28;20340;-88
2022/11/16 12:57:48;;;;;;;0.73;0.73;;;;;;;;;;5054183;28;20212;-88
2022/11/16 13:00:18;;;;;;;0.93;0.93;;;;;;;;;;5053954;28;20193;-88
2022/11/16 13:03:12;;;;;;;0.68;0.68;;;;;;;;;;5052776;28;20233;-88
2022/11/16 13:05:54;;;;;;;0.60;0.60;;;;;;;;;;5053829;28;20638;-88
2022/11/16 13:08:44;;;;;;;0.60;0.60;;;;;;;;;;5053929;28;20185;-88
2022/11/16 13:11:16;;;;;;;1.00;1.00;;;;;;;;;;5049634;28;20281;-88
2022/11/16 13:13:45;;;;;;;2.60;1.25;;;;;;;;;;5053787;28;20217;-88
2022/11/16 13:16:16;;;;;;;2.22;1.60;;;;;;;;;;5053877;28;20227;-89
2022/11/16 13:18:44;;;;;;;2.15;1.95;;;;;;;;;;5054101;28;20233;-89
2022/11/16 13:21:22;;;;;;;4.05;2.38;;;;;;;;;;5053879;28;20680;-88
2022/11/16 13:24:01;;;;;;;4.45;2.22;;;;;;;;;;5053859;28;20658;-88
2022/11/16 13:26:35;;;;;;;2.88;1.70;;;;;;;;;;5053123;28;20260;-89
2022/11/16 13:29:13;;;;;;;1.55;1.02;;;;;;;;;;5053506;28;20218;-88
2022/11/16 13:31:46;;;;;;;2.15;1.27;;;;;;;;;;5053192;28;20237;-89
2022/11/16 13:34:19;;;;;;;1.17;1.08;;;;;;;;;;5053436;28;20319;-89
2022/11/16 13:36:47;;;;;;;1.50;0.98;;;;;;;;;;5053251;28;20637;-89
2022/11/16 13:39:17;;;;;;;1.52;1.30;;;;;;;;;;5053615;28;20267;-89
2022/11/16 13:41:46;;;;;;;1.95;1.15;;;;;;;;;;5062650;28;20217;-89
2022/11/16 13:44:23;;;;;;;2.08;1.48;;;;;;;;;;5072554;28;20201;-89
2022/11/16 13:46:54;;;;;;;2.08;1.27;;;;;;;;;;5073028;28;20675;-89
2022/11/16 13:49:26;;;;;;;3.20;2.10;;;;;;;;;;5072909;28;20291;-89
2022/11/16 13:51:57;;;;;;;2.67;1.63;;;;;;;;;;5075044;28;20231;-89
2022/11/16 13:54:30;;;;;;;2.08;1.20;;;;;;;;;;5074586;28;20217;-88
2022/11/16 13:56:57;;;;;;;1.10;0.93;;;;;;;;;;5072410;28;20201;-90
2022/11/16 13:59:28;;;;;;;0.60;0.60;;;;;;;;;;5072003;28;20288;-89
2022/11/16 14:02:00;;;;;;;0.90;0.90;;;;;;;;;;5071934;28;20193;-89
2022/11/16 14:04:43;;;;;;;0.70;0.70;;;;;;;;;;5072138;28;20208;-89
2022/11/16 14:07:34;;;;;;;0.85;0.85;;;;;;;;;;5052704;28;20201;-89
2022/11/16 14:10:04;;;;;;;0.57;0.57;;;;;;;;;;5052339;28;20221;-89
2022/11/16 14:12:57;;;;;;;0.68;0.68;;;;;;;;;;5068101;28;20205;-89
2022/11/16 14:15:31;;;;;;;0.50;0.50;;;;;;;;;;5072637;28;20611;-89
2022/11/16 14:18:35;;;;;;;0.55;0.55;;;;;;;;;;5072748;28;20228;-90
2022/11/16 14:21:15;;;;;;;0.45;0.45;;;;;;;;;;5072275;28;20224;-89
2022/11/16 14:24:15;;;;;;;0.80;0.65;;;;;;;;;;5072537;28;20200;-90
2022/11/16 14:26:52;;;;;;;1.40;1.25;;;;;;;;;;5055175;28;20206;-89
2022/11/16 14:29:46;;;;;;;1.20;0.98;;;;;;;;;;5052164;28;20576;-89
2022/11/16 14:32:25;;;;;;;1.20;1.00;;;;;;;;;;5052202;28;20237;-90
2022/11/16 14:34:57;;;;;;;1.75;1.30;;;;;;;;;;5052198;28;20267;-90
2022/11/16 14:37:36;;;;;;;1.85;1.55;;;;;;;;;;5052159;28;20240;-88
2022/11/16 14:40:08;;;;;;;2.42;1.73;;;;;;;;;;5051621;28;20201;-88
2022/11/16 14:42:45;;;;;;;2.55;1.50;;;;;;;;;;5068476;28;20280;-88
2022/11/16 14:45:19;;;;;;;8.73;5.65;;;;;;;;;;5072420;28;20220;-88
2022/11/16 14:47:48;;;;;;;4.28;3.30;;;;;;;;;;5072919;28;20209;-91
2022/11/16 14:50:26;;;;;;;13.48;8.43;;;;;;;;;;5072460;28;20200;-90
2022/11/16 14:52:55;;;;;;;24.52;14.65;;;;;;;;;;5073109;28;20622;-89
2022/11/16 14:55:25;;;;;;;26.95;13.20;;;;;;;;;;5066738;28;20800;-89
2022/11/16 14:58:09;;;;;;;14.98;9.50;;;;;;;;;;5052661;28;20186;-89
2022/11/16 15:00:38;;;;;;;12.32;7.35;;;;;;;;;;5052718;28;20243;-88
2022/11/16 15:03:06;;;;;;;12.80;7.07;;;;;;;;;;5052354;28;20273;-90
2022/11/16 15:05:36;;;;;;;9.88;7.15;;;;;;;;;;5052763;28;20300;-90
2022/11/16 15:08:21;;;;;;;7.22;5.95;;;;;;;;;;5052257;28;20198;-90
2022/11/16 15:10:49;;;;;;;6.72;5.32;;;;;;;;;;5052429;28;20277;-90
2022/11/16 15:13:19;;;;;;;5.75;4.00;;;;;;;;;;5052642;28;20292;-88
2022/11/16 15:15:47;;;;;;;4.95;2.72;;;;;;;;;;5052549;28;20225;-88
2022/11/16 15:18:20;;;;;;;2.80;2.30;;;;;;;;;;5052117;28;20206;-89
2022/11/16 15:20:51;;;;;;;1.85;1.70;;;;;;;;;;5052323;28;20189;-88
2022/11/16 15:23:20;;;;;;;2.45;1.80;;;;;;;;;;5052611;28;20185;-88
2022/11/16 15:25:54;;;;;;;4.43;3.05;;;;;;;;;;5054356;28;20308;-88
2022/11/16 15:28:23;;;;;;;5.07;3.67;;;;;;;;;;5055942;28;20202;-88
2022/11/16 15:30:53;;;;;;;3.20;2.65;;;;;;;;;;5056221;28;20198;-90
2022/11/16 15:33:25;;;;;;;2.30;2.03;;;;;;;;;;5056272;28;20742;-88
2022/11/16 15:35:55;;;;;;;2.72;1.95;;;;;;;;;;5055576;28;20751;-90
2022/11/16 15:38:25;;;;;;;5.68;2.25;;;;;;;;;;5055493;28;20292;-88
2022/11/16 15:40:55;;;;;;;3.58;1.38;;;;;;;;;;5057947;28;20284;-88
2022/11/16 15:43:26;;;;;;;1.05;1.05;;;;;;;;;;5075327;28;20182;-88
2022/11/16 15:45:56;;;;;;;1.23;0.90;;;;;;;;;;5075512;28;20331;-87
2022/11/16 15:48:26;;;;;;;1.98;1.20;;;;;;;;;;5075481;28;20194;-87
2022/11/16 15:51:08;;;;;;;1.40;1.13;;;;;;;;;;5075886;28;20278;-89
2022/11/16 15:53:44;;;;;;;2.13;1.40;;;;;;;;;;5075663;28;20288;-89
2022/11/16 15:56:27;;;;;;;3.50;2.92;;;;;;;;;;5075673;28;20741;-89
2022/11/16 15:58:56;;;;;;;5.28;3.67;;;;;;;;;;5075560;28;20184;-89